createdAt,value
2016-08-14T00:00:29.062Z,-79
2016-08-14T00:01:29.158Z,-78
2016-08-14T00:02:29.222Z,-79
2016-08-14T00:03:29.242Z,-78
2016-08-14T00:04:29.163Z,-78
2016-08-14T00:05:29.104Z,-79
2016-08-14T00:06:29.159Z,-79
2016-08-14T00:07:29.091Z,-78
2016-08-14T00:08:29.111Z,-78
2016-08-14T00:09:29.115Z,-78
2016-08-14T00:10:29.098Z,-78
2016-08-14T00:11:29.053Z,-79
2016-08-14T00:12:29.040Z,-79
2016-08-14T00:13:29.197Z,-78
2016-08-14T00:14:29.198Z,-78
2016-08-14T00:15:29.211Z,-79
2016-08-14T00:16:29.106Z,-78
2016-08-14T00:17:29.220Z,-78
2016-08-14T00:18:29.268Z,-79
2016-08-14T00:19:29.119Z,-79
2016-08-14T00:20:29.292Z,-79
2016-08-14T00:21:29.065Z,-78
2016-08-14T00:22:29.125Z,-79
2016-08-14T00:23:29.139Z,-79
2016-08-14T00:24:29.227Z,-78
2016-08-14T00:25:29.219Z,-78
2016-08-14T00:26:29.166Z,-78
2016-08-14T00:27:29.305Z,-78
2016-08-14T00:28:29.227Z,-78
2016-08-14T00:29:29.220Z,-79
2016-08-14T00:30:29.170Z,-79
2016-08-14T00:31:29.316Z,-78
2016-08-14T00:32:29.235Z,-79
2016-08-14T00:33:29.177Z,-78
2016-08-14T00:34:29.161Z,-78
2016-08-14T00:35:29.098Z,-79
2016-08-14T00:36:29.165Z,-78
2016-08-14T00:37:29.264Z,-78
2016-08-14T00:38:29.423Z,-78
2016-08-14T00:39:29.354Z,-78
2016-08-14T00:40:29.262Z,-79
2016-08-14T00:41:29.198Z,-78
2016-08-14T00:42:29.288Z,-79
2016-08-14T00:43:29.267Z,-78
2016-08-14T00:44:29.347Z,-79
2016-08-14T00:45:29.266Z,-78
2016-08-14T00:46:29.334Z,-78
2016-08-14T00:47:29.207Z,-78
2016-08-14T00:48:29.128Z,-79
2016-08-14T00:49:29.203Z,-79
2016-08-14T00:50:29.298Z,-79
2016-08-14T00:51:29.208Z,-79
2016-08-14T00:52:29.308Z,-79
2016-08-14T00:53:29.302Z,-79
2016-08-14T00:54:29.281Z,-78
2016-08-14T00:55:29.305Z,-79
2016-08-14T00:56:29.326Z,-78
2016-08-14T00:57:29.235Z,-78
2016-08-14T00:58:29.228Z,-78
2016-08-14T00:59:29.226Z,-79
2016-08-14T01:00:29.310Z,-79
2016-08-14T01:01:29.250Z,-79
2016-08-14T01:02:29.249Z,-79
2016-08-14T01:03:29.391Z,-79
2016-08-14T01:04:29.170Z,-79
2016-08-14T01:05:29.334Z,-79
2016-08-14T01:06:29.350Z,-79
2016-08-14T01:07:29.418Z,-79
2016-08-14T01:08:29.197Z,-79
2016-08-14T01:09:29.427Z,-79
2016-08-14T01:10:29.193Z,-78
2016-08-14T01:11:29.214Z,-79
2016-08-14T01:12:29.361Z,-79
2016-08-14T01:13:29.271Z,-79
2016-08-14T01:14:29.445Z,-79
2016-08-14T01:15:29.357Z,-78
2016-08-14T01:16:29.281Z,-78
2016-08-14T01:17:29.289Z,-79
2016-08-14T01:18:29.462Z,-79
2016-08-14T01:19:29.451Z,-79
2016-08-14T01:20:29.458Z,-79
2016-08-14T01:21:29.367Z,-79
2016-08-14T01:22:29.372Z,-79
2016-08-14T01:23:29.465Z,-79
2016-08-14T01:24:29.315Z,-79
2016-08-14T01:25:29.467Z,-79
2016-08-14T01:26:29.386Z,-79
2016-08-14T01:27:29.394Z,-79
2016-08-14T01:28:29.482Z,-79
2016-08-14T01:29:29.407Z,-79
2016-08-14T01:30:29.393Z,-79
2016-08-14T01:31:29.332Z,-79
2016-08-14T01:32:29.263Z,-79
2016-08-14T01:33:29.505Z,-79
2016-08-14T01:34:29.424Z,-80
2016-08-14T01:35:29.339Z,-79
2016-08-14T01:36:29.349Z,-78
2016-08-14T01:37:29.350Z,-79
2016-08-14T01:38:29.565Z,-79
2016-08-14T01:39:29.350Z,-79
2016-08-14T01:40:29.423Z,-79
2016-08-14T01:41:29.447Z,-79
2016-08-14T01:42:29.425Z,-79
2016-08-14T01:43:29.382Z,-79
2016-08-14T01:44:29.442Z,-79
2016-08-14T01:45:29.286Z,-79
2016-08-14T01:46:29.280Z,-79
2016-08-14T01:47:29.455Z,-79
2016-08-14T01:48:29.375Z,-78
2016-08-14T01:49:29.291Z,-78
2016-08-14T01:50:29.449Z,-79
2016-08-14T01:51:29.571Z,-79
2016-08-14T01:52:29.551Z,-78
2016-08-14T01:53:29.554Z,-79
2016-08-14T01:54:29.472Z,-79
2016-08-14T01:55:29.554Z,-78
2016-08-14T01:56:29.412Z,-78
2016-08-14T01:57:29.475Z,-79
2016-08-14T01:58:29.493Z,-78
2016-08-14T01:59:29.433Z,-79
2016-08-14T02:00:29.412Z,-78
2016-08-14T02:01:29.481Z,-78
2016-08-14T02:02:29.438Z,-78
2016-08-14T02:03:29.427Z,-79
2016-08-14T02:04:29.496Z,-79
2016-08-14T02:05:29.361Z,-79
2016-08-14T02:06:29.357Z,-78
2016-08-14T02:07:29.443Z,-79
2016-08-14T02:08:29.520Z,-79
2016-08-14T02:09:29.589Z,-79
2016-08-14T02:10:29.388Z,-79
2016-08-14T02:11:29.525Z,-80
2016-08-14T02:12:29.537Z,-79
2016-08-14T02:13:29.607Z,-79
2016-08-14T02:14:29.479Z,-79
2016-08-14T02:15:29.530Z,-79
2016-08-14T02:16:29.476Z,-79
2016-08-14T02:17:29.457Z,-79
2016-08-14T02:18:29.408Z,-78
2016-08-14T02:19:29.626Z,-79
2016-08-14T02:20:29.567Z,-78
2016-08-14T02:21:29.480Z,-79
2016-08-14T02:22:29.510Z,-79
2016-08-14T02:23:29.575Z,-79
2016-08-14T02:24:29.586Z,-79
2016-08-14T02:25:29.568Z,-79
2016-08-14T02:26:29.580Z,-79
2016-08-14T02:27:29.555Z,-78
2016-08-14T02:28:29.423Z,-79
2016-08-14T02:29:29.568Z,-79
2016-08-14T02:30:29.430Z,-79
2016-08-14T02:31:29.501Z,-78
2016-08-14T02:32:29.508Z,-79
2016-08-14T02:33:29.661Z,-78
2016-08-14T02:34:29.504Z,-79
2016-08-14T02:35:29.658Z,-78
2016-08-14T02:36:29.534Z,-79
2016-08-14T02:37:29.598Z,-79
2016-08-14T02:38:29.642Z,-79
2016-08-14T02:39:29.603Z,-79
2016-08-14T02:40:29.516Z,-78
2016-08-14T02:41:29.621Z,-79
2016-08-14T02:42:29.609Z,-79
2016-08-14T02:43:29.625Z,-79
2016-08-14T02:44:29.533Z,-79
2016-08-14T02:45:29.724Z,-79
2016-08-14T02:46:29.527Z,-79
2016-08-14T02:47:29.535Z,-79
2016-08-14T02:48:29.554Z,-79
2016-08-14T02:49:29.580Z,-79
2016-08-14T02:50:29.697Z,-79
2016-08-14T02:51:29.570Z,-79
2016-08-14T02:52:29.567Z,-78
2016-08-14T02:53:29.632Z,-78
2016-08-14T02:54:29.633Z,-79
2016-08-14T02:55:29.494Z,-79
2016-08-14T02:56:29.644Z,-79
2016-08-14T02:57:29.511Z,-79
2016-08-14T02:58:29.644Z,-79
2016-08-14T02:59:29.593Z,-79
2016-08-14T03:00:29.590Z,-79
2016-08-14T03:01:29.591Z,-79
2016-08-14T03:02:29.601Z,-79
2016-08-14T03:03:29.754Z,-79
2016-08-14T03:04:29.527Z,-79
2016-08-14T03:05:29.595Z,-79
2016-08-14T03:06:29.522Z,-79
2016-08-14T03:07:29.672Z,-79
2016-08-14T03:08:29.760Z,-78
2016-08-14T03:09:29.530Z,-79
2016-08-14T03:10:29.746Z,-78
2016-08-14T03:11:29.612Z,-79
2016-08-14T03:12:29.689Z,-79
2016-08-14T03:13:29.558Z,-79
2016-08-14T03:14:29.703Z,-79
2016-08-14T03:15:29.695Z,-79
2016-08-14T03:16:29.717Z,-79
2016-08-14T03:17:29.555Z,-79
2016-08-14T03:18:29.719Z,-79
2016-08-14T03:19:29.636Z,-79
2016-08-14T03:20:29.738Z,-79
2016-08-14T03:21:29.707Z,-79
2016-08-14T03:22:29.658Z,-79
2016-08-14T03:23:29.729Z,-79
2016-08-14T03:24:29.792Z,-78
2016-08-14T03:25:29.578Z,-79
2016-08-14T03:26:29.640Z,-79
2016-08-14T03:27:29.666Z,-79
2016-08-14T03:28:29.754Z,-79
2016-08-14T03:29:29.739Z,-78
2016-08-14T03:30:29.591Z,-78
2016-08-14T03:31:29.750Z,-78
2016-08-14T03:32:29.605Z,-79
2016-08-14T03:33:29.675Z,-78
2016-08-14T03:34:29.767Z,-79
2016-08-14T03:35:29.689Z,-79
2016-08-14T03:36:29.773Z,-79
2016-08-14T03:37:29.680Z,-79
2016-08-14T03:38:29.773Z,-79
2016-08-14T03:39:29.905Z,-79
2016-08-14T03:40:29.773Z,-79
2016-08-14T03:41:29.792Z,-79
2016-08-14T03:42:29.775Z,-79
2016-08-14T03:43:29.778Z,-79
2016-08-14T03:44:29.785Z,-79
2016-08-14T03:45:29.710Z,-79
2016-08-14T03:46:29.793Z,-79
2016-08-14T03:51:48.566Z,-79
2016-08-14T03:51:55.585Z,-79
2016-08-14T03:52:55.523Z,-78
2016-08-14T03:53:55.497Z,-79
2016-08-14T03:54:55.448Z,-79
2016-08-14T03:55:55.460Z,-79
2016-08-14T03:56:55.452Z,-79
2016-08-14T03:57:55.510Z,-79
2016-08-14T03:58:55.451Z,-79
2016-08-14T03:59:55.470Z,-78
2016-08-14T04:00:55.520Z,-79
2016-08-14T04:01:55.467Z,-79
2016-08-14T04:02:55.623Z,-79
2016-08-14T04:03:55.456Z,-79
2016-08-14T04:04:55.527Z,-79
2016-08-14T04:05:55.546Z,-79
2016-08-14T04:06:55.563Z,-79
2016-08-14T04:07:55.559Z,-79
2016-08-14T04:08:55.552Z,-79
2016-08-14T04:09:55.417Z,-79
2016-08-14T04:10:55.490Z,-79
2016-08-14T04:11:55.579Z,-79
2016-08-14T04:12:55.499Z,-79
2016-08-14T04:13:55.594Z,-79
2016-08-14T04:14:55.499Z,-79
2016-08-14T04:15:55.574Z,-79
2016-08-14T04:16:55.579Z,-79
2016-08-14T04:17:55.499Z,-79
2016-08-14T04:18:55.713Z,-79
2016-08-14T04:19:55.441Z,-79
2016-08-14T04:20:55.513Z,-79
2016-08-14T04:21:55.603Z,-79
2016-08-14T04:22:55.518Z,-79
2016-08-14T04:23:55.608Z,-79
2016-08-14T04:24:55.527Z,-79
2016-08-14T04:25:55.616Z,-79
2016-08-14T04:26:55.603Z,-79
2016-08-14T04:27:55.638Z,-79
2016-08-14T04:28:55.482Z,-79
2016-08-14T04:29:55.551Z,-79
2016-08-14T04:30:55.539Z,-79
2016-08-14T04:31:55.653Z,-79
2016-08-14T04:32:55.560Z,-79
2016-08-14T04:33:55.635Z,-79
2016-08-14T04:34:55.738Z,-79
2016-08-14T04:35:55.576Z,-79
2016-08-14T04:36:55.574Z,-79
2016-08-14T04:37:55.652Z,-79
2016-08-14T04:38:55.494Z,-78
2016-08-14T04:39:55.765Z,-79
2016-08-14T04:40:55.490Z,-79
2016-08-14T04:41:55.643Z,-79
2016-08-14T04:42:55.738Z,-79
2016-08-14T04:43:55.520Z,-79
2016-08-14T04:44:55.663Z,-79
2016-08-14T04:45:55.598Z,-79
2016-08-14T04:46:55.591Z,-79
2016-08-14T04:47:55.585Z,-79
2016-08-14T04:48:55.514Z,-79
2016-08-14T04:49:55.595Z,-79
2016-08-14T04:50:55.681Z,-79
2016-08-14T04:51:55.645Z,-91
2016-08-14T04:52:55.646Z,-86
2016-08-14T04:53:55.540Z,-86
2016-08-14T04:54:55.700Z,-86
2016-08-14T04:55:55.794Z,-86
2016-08-14T04:56:55.630Z,-86
2016-08-14T04:57:55.648Z,-87
2016-08-14T04:58:55.622Z,-86
2016-08-14T04:59:55.551Z,-87
2016-08-14T05:00:55.648Z,-86
2016-08-14T05:01:55.707Z,-87
2016-08-14T05:02:55.668Z,-86
2016-08-14T05:03:55.649Z,-86
2016-08-14T05:04:55.643Z,-86
2016-08-14T05:05:55.651Z,-86
2016-08-14T05:06:55.726Z,-86
2016-08-14T05:07:55.721Z,-86
2016-08-14T05:08:55.667Z,-86
2016-08-14T05:09:55.661Z,-86
2016-08-14T05:10:55.688Z,-86
2016-08-14T05:11:55.776Z,-86
2016-08-14T05:12:55.764Z,-86
2016-08-14T05:13:55.680Z,-86
2016-08-14T05:14:55.757Z,-86
2016-08-14T05:15:55.703Z,-86
2016-08-14T05:16:55.683Z,-86
2016-08-14T05:17:55.699Z,-86
2016-08-14T05:18:55.779Z,-86
2016-08-14T05:19:55.789Z,-86
2016-08-14T05:20:55.845Z,-86
2016-08-14T05:21:55.686Z,-86
2016-08-14T05:22:55.706Z,-85
2016-08-14T05:23:55.778Z,-86
2016-08-14T05:24:55.768Z,-87
2016-08-14T05:25:55.715Z,-86
2016-08-14T05:26:55.783Z,-86
2016-08-14T05:27:55.693Z,-86
2016-08-14T05:28:55.714Z,-85
2016-08-14T05:29:55.646Z,-86
2016-08-14T05:30:55.717Z,-86
2016-08-14T05:31:55.807Z,-86
2016-08-14T05:32:55.731Z,-86
2016-08-14T05:33:55.815Z,-86
2016-08-14T05:34:55.796Z,-86
2016-08-14T05:35:55.820Z,-86
2016-08-14T05:36:55.735Z,-86
2016-08-14T05:37:55.738Z,-85
2016-08-14T05:38:55.768Z,-85
2016-08-14T05:39:55.934Z,-85
2016-08-14T05:40:55.762Z,-86
2016-08-14T05:41:55.820Z,-86
2016-08-14T05:42:55.899Z,-85
2016-08-14T05:43:55.920Z,-85
2016-08-14T05:44:55.768Z,-85
2016-08-14T05:45:55.837Z,-86
2016-08-14T05:46:55.762Z,-86
2016-08-14T05:47:55.835Z,-86
2016-08-14T05:48:55.853Z,-86
2016-08-14T05:49:55.714Z,-86
2016-08-14T05:50:55.798Z,-85
2016-08-14T05:51:55.717Z,-85
2016-08-14T05:52:55.916Z,-86
2016-08-14T05:53:55.782Z,-85
2016-08-14T05:54:55.864Z,-86
2016-08-14T05:55:55.980Z,-85
2016-08-14T05:56:55.950Z,-86
2016-08-14T05:57:55.729Z,-85
2016-08-14T05:58:55.795Z,-85
2016-08-14T05:59:55.801Z,-86
2016-08-14T06:00:55.745Z,-86
2016-08-14T06:01:55.814Z,-86
2016-08-14T06:02:55.821Z,-86
2016-08-14T06:03:55.813Z,-86
2016-08-14T06:04:55.842Z,-86
2016-08-14T06:05:55.927Z,-86
2016-08-14T06:06:55.890Z,-86
2016-08-14T06:07:55.897Z,-86
2016-08-14T06:08:56.009Z,-85
2016-08-14T06:09:55.909Z,-85
2016-08-14T06:10:55.995Z,-85
2016-08-14T06:11:55.920Z,-86
2016-08-14T06:12:55.914Z,-86
2016-08-14T06:13:55.840Z,-86
2016-08-14T06:14:55.918Z,-85
2016-08-14T06:15:55.937Z,-86
2016-08-14T06:16:55.854Z,-86
2016-08-14T06:17:55.885Z,-85
2016-08-14T06:18:55.933Z,-85
2016-08-14T06:19:56.027Z,-86
2016-08-14T06:20:55.871Z,-85
2016-08-14T06:21:55.883Z,-86
2016-08-14T06:22:55.952Z,-86
2016-08-14T06:23:55.946Z,-86
2016-08-14T06:24:55.793Z,-86
2016-08-14T06:25:56.031Z,-86
2016-08-14T06:26:56.022Z,-86
2016-08-14T06:27:55.881Z,-85
2016-08-14T06:28:55.978Z,-86
2016-08-14T06:29:55.975Z,-86
2016-08-14T06:30:55.897Z,-86
2016-08-14T06:31:55.899Z,-85
2016-08-14T06:32:55.888Z,-85
2016-08-14T06:33:55.906Z,-85
2016-08-14T06:34:55.984Z,-86
2016-08-14T06:35:55.842Z,-85
2016-08-14T06:36:55.940Z,-85
2016-08-14T06:37:55.993Z,-86
2016-08-14T06:38:55.999Z,-85
2016-08-14T06:39:56.051Z,-86
2016-08-14T06:40:55.988Z,-85
2016-08-14T06:41:55.847Z,-86
2016-08-14T06:42:55.934Z,-85
2016-08-14T06:43:56.012Z,-85
2016-08-14T06:44:55.926Z,-85
2016-08-14T06:45:55.960Z,-86
2016-08-14T06:46:55.885Z,-85
2016-08-14T06:47:55.908Z,-85
2016-08-14T06:48:56.021Z,-85
2016-08-14T06:49:56.067Z,-85
2016-08-14T06:50:56.034Z,-84
2016-08-14T06:51:56.034Z,-85
2016-08-14T06:52:56.023Z,-86
2016-08-14T06:53:56.040Z,-85
2016-08-14T06:54:56.030Z,-86
2016-08-14T06:55:56.057Z,-85
2016-08-14T06:56:56.032Z,-85
2016-08-14T06:57:55.982Z,-85
2016-08-14T06:58:55.983Z,-85
2016-08-14T06:59:55.900Z,-85
2016-08-14T07:00:56.051Z,-85
2016-08-14T07:01:55.923Z,-85
2016-08-14T07:02:56.071Z,-85
2016-08-14T07:03:56.010Z,-84
2016-08-14T07:04:56.062Z,-86
2016-08-14T07:05:56.019Z,-85
2016-08-14T07:06:56.086Z,-86
2016-08-14T07:07:56.008Z,-85
2016-08-14T07:08:55.929Z,-85
2016-08-14T07:09:56.001Z,-85
2016-08-14T07:10:56.093Z,-85
2016-08-14T07:11:56.176Z,-85
2016-08-14T07:12:56.021Z,-85
2016-08-14T07:13:56.038Z,-86
2016-08-14T07:14:56.010Z,-85
2016-08-14T07:15:56.034Z,-85
2016-08-14T07:16:56.033Z,-86
2016-08-14T07:17:56.115Z,-85
2016-08-14T07:18:56.053Z,-85
2016-08-14T07:19:56.124Z,-85
2016-08-14T07:20:56.035Z,-85
2016-08-14T07:21:56.207Z,-86
2016-08-14T07:22:56.034Z,-85
2016-08-14T07:23:56.199Z,-85
2016-08-14T07:24:56.048Z,-85
2016-08-14T07:25:56.124Z,-85
2016-08-14T07:26:56.148Z,-86
2016-08-14T07:27:56.219Z,-85
2016-08-14T07:28:55.993Z,-85
2016-08-14T07:29:56.136Z,-85
2016-08-14T07:30:56.140Z,-85
2016-08-14T07:31:56.014Z,-85
2016-08-14T07:32:56.079Z,-86
2016-08-14T07:33:56.147Z,-85
2016-08-14T07:34:56.227Z,-85
2016-08-14T07:35:56.078Z,-86
2016-08-14T07:36:56.096Z,-85
2016-08-14T07:37:56.097Z,-86
2016-08-14T07:38:56.094Z,-86
2016-08-14T07:39:56.041Z,-85
2016-08-14T07:40:56.395Z,-86
2016-08-14T07:41:56.107Z,-86
2016-08-14T07:42:56.041Z,-86
2016-08-14T07:43:56.101Z,-85
2016-08-14T07:44:56.035Z,-86
2016-08-14T07:45:56.201Z,-86
2016-08-14T07:46:56.125Z,-86
2016-08-14T07:47:56.129Z,-85
2016-08-14T07:48:56.057Z,-85
2016-08-14T07:49:56.202Z,-86
2016-08-14T07:50:56.266Z,-85
2016-08-14T07:51:56.285Z,-86
2016-08-14T07:52:56.126Z,-85
2016-08-14T07:53:56.278Z,-86
2016-08-14T07:54:56.074Z,-85
2016-08-14T07:55:56.232Z,-84
2016-08-14T07:56:56.280Z,-84
2016-08-14T07:57:56.077Z,-85
2016-08-14T07:58:56.321Z,-84
2016-08-14T07:59:56.243Z,-85
2016-08-14T08:00:56.147Z,-85
2016-08-14T08:01:56.165Z,-85
2016-08-14T08:02:56.310Z,-84
2016-08-14T08:03:56.167Z,-84
2016-08-14T08:04:56.318Z,-85
2016-08-14T08:05:56.272Z,-85
2016-08-14T08:06:56.175Z,-85
2016-08-14T08:07:56.218Z,-85
2016-08-14T08:08:56.257Z,-85
2016-08-14T08:09:56.265Z,-85
2016-08-14T08:10:56.210Z,-85
2016-08-14T08:11:56.286Z,-85
2016-08-14T08:12:56.301Z,-85
2016-08-14T08:13:56.126Z,-85
2016-08-14T08:14:56.226Z,-84
2016-08-14T08:15:56.215Z,-84
2016-08-14T08:16:56.238Z,-84
2016-08-14T08:17:56.217Z,-85
2016-08-14T08:18:56.901Z,-85
2016-08-14T08:19:56.309Z,-85
2016-08-14T08:20:56.237Z,-85
2016-08-14T08:21:56.362Z,-85
2016-08-14T08:22:56.308Z,-85
2016-08-14T08:23:56.158Z,-84
2016-08-14T08:24:56.239Z,-84
2016-08-14T08:25:56.306Z,-84
2016-08-14T08:26:56.297Z,-84
2016-08-14T08:27:56.234Z,-84
2016-08-14T08:28:56.248Z,-84
2016-08-14T08:29:56.244Z,-84
2016-08-14T08:31:31.263Z,-84
2016-08-14T08:31:56.396Z,-85
2016-08-14T08:32:56.392Z,-84
2016-08-14T08:33:56.191Z,-85
2016-08-14T08:34:56.322Z,-85
2016-08-14T08:35:56.326Z,-84
2016-08-14T08:36:56.341Z,-85
2016-08-14T08:37:56.421Z,-85
2016-08-14T08:38:56.338Z,-84
2016-08-14T08:39:56.267Z,-84
2016-08-14T08:40:56.490Z,-85
2016-08-14T08:41:56.265Z,-85
2016-08-14T08:42:56.364Z,-84
2016-08-14T08:43:56.424Z,-85
2016-08-14T08:44:56.288Z,-85
2016-08-14T08:45:56.218Z,-84
2016-08-14T08:46:56.360Z,-85
2016-08-14T08:47:56.303Z,-84
2016-08-14T08:48:56.452Z,-85
2016-08-14T08:49:56.450Z,-84
2016-08-14T08:50:56.398Z,-84
2016-08-14T08:51:56.382Z,-85
2016-08-14T08:52:56.316Z,-85
2016-08-14T08:53:56.464Z,-85
2016-08-14T08:54:56.319Z,-85
2016-08-14T08:55:56.405Z,-85
2016-08-14T08:56:56.479Z,-84
2016-08-14T08:57:56.329Z,-85
2016-08-14T08:58:56.408Z,-85
2016-08-14T08:59:56.407Z,-85
2016-08-14T09:00:56.239Z,-84
2016-08-14T09:01:56.419Z,-85
2016-08-14T09:02:56.336Z,-85
2016-08-14T09:03:56.348Z,-85
2016-08-14T09:04:56.340Z,-85
2016-08-14T09:05:56.414Z,-85
2016-08-14T09:06:56.508Z,-85
2016-08-14T09:07:56.363Z,-85
2016-08-14T09:08:56.494Z,-85
2016-08-14T09:09:56.367Z,-84
2016-08-14T09:10:56.365Z,-85
2016-08-14T09:11:56.438Z,-85
2016-08-14T09:12:56.356Z,-85
2016-08-14T09:13:56.465Z,-85
2016-08-14T09:14:56.453Z,-85
2016-08-14T09:15:56.477Z,-85
2016-08-14T09:16:56.370Z,-85
2016-08-14T09:17:56.537Z,-85
2016-08-14T09:18:56.477Z,-85
2016-08-14T09:19:56.313Z,-85
2016-08-14T09:20:56.553Z,-85
2016-08-14T09:21:56.338Z,-85
2016-08-14T09:22:56.355Z,-85
2016-08-14T09:23:56.348Z,-85
2016-08-14T09:24:56.404Z,-85
2016-08-14T09:25:56.406Z,-86
2016-08-14T09:26:56.566Z,-86
2016-08-14T09:27:56.488Z,-85
2016-08-14T09:28:56.474Z,-86
2016-08-14T09:29:56.418Z,-86
2016-08-14T09:30:56.424Z,-86
2016-08-14T09:31:56.513Z,-86
2016-08-14T09:32:56.489Z,-86
2016-08-14T09:33:56.362Z,-86
2016-08-14T09:34:56.433Z,-86
2016-08-14T09:35:56.490Z,-86
2016-08-14T09:36:56.584Z,-86
2016-08-14T09:37:56.511Z,-86
2016-08-14T09:38:56.608Z,-86
2016-08-14T09:39:56.434Z,-86
2016-08-14T09:40:56.732Z,-86
2016-08-14T09:41:56.540Z,-86
2016-08-14T09:42:56.520Z,-86
2016-08-14T09:43:56.467Z,-86
2016-08-14T09:44:56.475Z,-86
2016-08-14T09:45:56.459Z,-86
2016-08-14T09:46:56.386Z,-86
2016-08-14T09:47:56.457Z,-87
2016-08-14T09:48:56.460Z,-86
2016-08-14T09:49:56.567Z,-86
2016-08-14T09:50:56.557Z,-86
2016-08-14T09:51:56.573Z,-86
2016-08-14T09:52:56.633Z,-87
2016-08-14T09:53:56.547Z,-86
2016-08-14T09:54:56.483Z,-86
2016-08-14T09:55:56.483Z,-87
2016-08-14T09:56:56.631Z,-86
2016-08-14T09:57:56.502Z,-86
2016-08-14T09:58:56.575Z,-86
2016-08-14T09:59:56.516Z,-86
2016-08-14T10:00:56.582Z,-86
2016-08-14T10:01:56.522Z,-86
2016-08-14T10:02:56.512Z,-86
2016-08-14T10:03:56.433Z,-86
2016-08-14T10:04:56.517Z,-86
2016-08-14T10:05:56.523Z,-86
2016-08-14T10:06:56.594Z,-86
2016-08-14T10:07:56.674Z,-86
2016-08-14T10:08:56.688Z,-86
2016-08-14T10:09:56.693Z,-86
2016-08-14T10:10:56.470Z,-86
2016-08-14T10:11:56.549Z,-86
2016-08-14T10:12:56.528Z,-86
2016-08-14T10:13:56.553Z,-86
2016-08-14T10:14:56.475Z,-86
2016-08-14T10:15:56.565Z,-86
2016-08-14T10:16:56.536Z,-86
2016-08-14T10:17:56.625Z,-87
2016-08-14T10:18:56.652Z,-86
2016-08-14T10:19:56.703Z,-86
2016-08-14T10:20:56.574Z,-86
2016-08-14T10:21:56.583Z,-86
2016-08-14T10:22:56.651Z,-86
2016-08-14T10:23:56.649Z,-86
2016-08-14T10:24:56.648Z,-86
2016-08-14T10:25:56.570Z,-86
2016-08-14T10:26:56.741Z,-86
2016-08-14T10:27:56.729Z,-86
2016-08-14T10:28:56.662Z,-86
2016-08-14T10:29:56.762Z,-85
2016-08-14T10:30:56.597Z,-86
2016-08-14T10:31:56.681Z,-86
2016-08-14T10:32:56.530Z,-85
2016-08-14T10:33:56.617Z,-86
2016-08-14T10:34:56.679Z,-86
2016-08-14T10:35:56.520Z,-86
2016-08-14T10:36:56.690Z,-86
2016-08-14T10:37:56.610Z,-87
2016-08-14T10:38:56.770Z,-86
2016-08-14T10:39:56.697Z,-86
2016-08-14T10:40:56.621Z,-86
2016-08-14T10:41:56.754Z,-86
2016-08-14T10:42:56.728Z,-86
2016-08-14T10:43:56.779Z,-86
2016-08-14T10:44:56.675Z,-86
2016-08-14T10:45:56.789Z,-86
2016-08-14T10:46:56.652Z,-86
2016-08-14T10:47:56.739Z,-86
2016-08-14T10:48:56.663Z,-86
2016-08-14T10:49:56.716Z,-86
2016-08-14T10:50:56.799Z,-86
2016-08-14T10:51:56.656Z,-86
2016-08-14T10:52:56.751Z,-86
2016-08-14T10:53:56.680Z,-86
2016-08-14T10:54:56.781Z,-86
2016-08-14T10:55:56.734Z,-86
2016-08-14T10:56:56.756Z,-86
2016-08-14T10:57:56.750Z,-85
2016-08-14T10:58:56.771Z,-86
2016-08-14T10:59:56.620Z,-85
2016-08-14T11:00:56.675Z,-86
2016-08-14T11:01:56.798Z,-86
2016-08-14T11:02:56.757Z,-86
2016-08-14T11:03:56.622Z,-86
2016-08-14T11:04:56.779Z,-87
2016-08-14T11:05:56.855Z,-86
2016-08-14T11:06:56.851Z,-86
2016-08-14T11:07:56.627Z,-86
2016-08-14T11:08:56.723Z,-86
2016-08-14T11:09:56.793Z,-86
2016-08-14T11:10:56.884Z,-86
2016-08-14T11:11:56.722Z,-86
2016-08-14T11:12:56.936Z,-86
2016-08-14T11:13:56.648Z,-85
2016-08-14T11:14:56.893Z,-85
2016-08-14T11:15:56.818Z,-86
2016-08-14T11:16:56.654Z,-86
2016-08-14T11:17:56.787Z,-85
2016-08-14T11:18:56.739Z,-86
2016-08-14T11:19:56.752Z,-86
2016-08-14T11:20:56.744Z,-86
2016-08-14T11:21:56.757Z,-86
2016-08-14T11:22:56.759Z,-85
2016-08-14T11:23:56.825Z,-85
2016-08-14T11:24:56.761Z,-85
2016-08-14T11:25:56.832Z,-85
2016-08-14T11:26:56.763Z,-85
2016-08-14T11:27:56.848Z,-85
2016-08-14T11:28:56.704Z,-85
2016-08-14T11:29:56.790Z,-86
2016-08-14T11:30:56.855Z,-85
2016-08-14T11:31:56.894Z,-86
2016-08-14T11:32:56.811Z,-86
2016-08-14T11:33:56.861Z,-85
2016-08-14T11:34:56.780Z,-86
2016-08-14T11:35:56.874Z,-86
2016-08-14T11:36:56.721Z,-85
2016-08-14T11:37:56.862Z,-85
2016-08-14T11:38:56.890Z,-85
2016-08-14T11:39:56.807Z,-85
2016-08-14T11:40:56.887Z,-85
2016-08-14T11:41:57.095Z,-85
2016-08-14T11:42:56.815Z,-85
2016-08-14T11:43:56.875Z,-85
2016-08-14T11:44:56.742Z,-85
2016-08-14T11:45:56.875Z,-85
2016-08-14T11:46:56.890Z,-85
2016-08-14T11:47:56.891Z,-84
2016-08-14T11:48:56.986Z,-85
2016-08-14T11:49:56.916Z,-85
2016-08-14T11:50:56.858Z,-85
2016-08-14T11:51:56.934Z,-85
2016-08-14T11:52:56.916Z,-85
2016-08-14T11:53:56.773Z,-85
2016-08-14T11:54:56.915Z,-85
2016-08-14T11:55:56.854Z,-85
2016-08-14T11:56:56.834Z,-85
2016-08-14T11:57:56.934Z,-85
2016-08-14T11:58:57.012Z,-85
2016-08-14T11:59:56.793Z,-85
2016-08-14T12:00:56.954Z,-84
2016-08-14T12:01:56.871Z,-86
2016-08-14T12:02:56.932Z,-85
2016-08-14T12:03:56.963Z,-85
2016-08-14T12:04:56.895Z,-85
2016-08-14T12:05:56.869Z,-85
2016-08-14T12:06:56.960Z,-85
2016-08-14T12:07:56.799Z,-86
2016-08-14T12:08:56.884Z,-84
2016-08-14T12:09:57.017Z,-85
2016-08-14T12:10:56.973Z,-85
2016-08-14T12:11:56.988Z,-85
2016-08-14T12:12:56.966Z,-86
2016-08-14T12:13:56.971Z,-85
2016-08-14T12:14:56.971Z,-85
2016-08-14T12:15:56.900Z,-85
2016-08-14T12:16:56.988Z,-85
2016-08-14T12:17:57.660Z,-85
2016-08-14T12:18:56.913Z,-85
2016-08-14T12:19:57.016Z,-84
2016-08-14T12:20:57.017Z,-85
2016-08-14T12:21:57.010Z,-84
2016-08-14T12:22:56.949Z,-85
2016-08-14T12:23:56.862Z,-85
2016-08-14T12:24:56.952Z,-85
2016-08-14T12:25:57.021Z,-85
2016-08-14T12:26:56.946Z,-85
2016-08-14T12:27:57.011Z,-85
2016-08-14T12:28:57.017Z,-85
2016-08-14T12:29:57.023Z,-85
2016-08-14T12:30:57.099Z,-85
2016-08-14T12:31:56.899Z,-86
2016-08-14T12:32:57.128Z,-86
2016-08-14T12:33:57.027Z,-85
2016-08-14T12:34:57.062Z,-86
2016-08-14T12:35:57.054Z,-85
2016-08-14T12:36:57.051Z,-85
2016-08-14T12:37:56.893Z,-85
2016-08-14T12:38:56.970Z,-85
2016-08-14T12:39:56.898Z,-84
2016-08-14T12:40:57.147Z,-86
2016-08-14T12:41:57.183Z,-85
2016-08-14T12:42:56.972Z,-85
2016-08-14T12:43:57.065Z,-85
2016-08-14T12:44:57.057Z,-85
2016-08-14T12:45:57.016Z,-85
2016-08-14T12:46:56.989Z,-85
2016-08-14T12:47:56.992Z,-85
2016-08-14T12:48:57.018Z,-85
2016-08-14T12:49:56.916Z,-85
2016-08-14T12:50:57.088Z,-84
2016-08-14T12:51:57.101Z,-86
2016-08-14T12:52:57.155Z,-85
2016-08-14T12:53:57.084Z,-85
2016-08-14T12:54:57.129Z,-86
2016-08-14T12:55:57.101Z,-86
2016-08-14T12:56:57.025Z,-85
2016-08-14T12:57:57.107Z,-85
2016-08-14T12:58:57.006Z,-86
2016-08-14T12:59:57.112Z,-85
2016-08-14T13:00:57.200Z,-85
2016-08-14T13:01:57.043Z,-85
2016-08-14T13:02:57.057Z,-85
2016-08-14T13:03:57.143Z,-85
2016-08-14T13:04:57.200Z,-85
2016-08-14T13:05:57.102Z,-86
2016-08-14T13:06:57.199Z,-85
2016-08-14T13:07:57.127Z,-86
2016-08-14T13:08:56.983Z,-86
2016-08-14T13:09:57.062Z,-85
2016-08-14T13:10:57.071Z,-85
2016-08-14T13:11:57.008Z,-85
2016-08-14T13:12:57.085Z,-85
2016-08-14T13:13:57.013Z,-86
2016-08-14T13:14:57.081Z,-86
2016-08-14T13:15:57.086Z,-86
2016-08-14T13:16:57.247Z,-86
2016-08-14T13:17:57.158Z,-85
2016-08-14T13:18:57.110Z,-85
2016-08-14T13:19:57.024Z,-86
2016-08-14T13:20:57.089Z,-85
2016-08-14T13:21:57.044Z,-86
2016-08-14T13:22:57.187Z,-86
2016-08-14T13:23:57.195Z,-85
2016-08-14T13:24:57.230Z,-86
2016-08-14T13:25:57.202Z,-86
2016-08-14T13:26:57.249Z,-86
2016-08-14T13:27:57.195Z,-86
2016-08-14T13:28:57.118Z,-87
2016-08-14T13:29:57.124Z,-86
2016-08-14T13:30:57.039Z,-86
2016-08-14T13:31:57.126Z,-86
2016-08-14T13:32:57.127Z,-85
2016-08-14T13:33:57.202Z,-86
2016-08-14T13:34:57.291Z,-86
2016-08-14T13:35:57.154Z,-85
2016-08-14T13:36:57.217Z,-86
2016-08-14T13:37:57.220Z,-86
2016-08-14T13:38:57.139Z,-86
2016-08-14T13:39:57.218Z,-86
2016-08-14T13:40:57.253Z,-86
2016-08-14T13:41:57.345Z,-86
2016-08-14T13:42:57.478Z,-85
2016-08-14T13:43:57.093Z,-85
2016-08-14T13:44:57.259Z,-86
2016-08-14T13:45:57.171Z,-86
2016-08-14T13:46:57.169Z,-85
2016-08-14T13:47:57.181Z,-86
2016-08-14T13:48:57.182Z,-86
2016-08-14T13:49:57.281Z,-86